createdAt,value
2019-01-11T00:00:39.286Z,261.07
2019-01-11T00:03:07.593Z,285.13
2019-01-11T00:05:35.894Z,298.07
2019-01-11T00:08:04.440Z,310.93
2019-01-11T00:10:32.970Z,317.17
2019-01-11T00:13:01.511Z,339.27
2019-01-11T00:15:30.772Z,323.17
2019-01-11T00:17:59.095Z,339.13
2019-01-11T00:20:27.381Z,335.07
2019-01-11T00:22:55.939Z,331.80
2019-01-11T00:25:24.474Z,343.00
2019-01-11T00:27:52.763Z,331.97
2019-01-11T00:30:21.069Z,322.00
2019-01-11T00:32:49.619Z,329.17
2019-01-11T00:35:17.929Z,325.83
2019-01-11T00:37:46.221Z,318.67
2019-01-11T00:40:14.600Z,307.97
2019-01-11T00:42:42.895Z,310.77
2019-01-11T00:45:11.777Z,297.73
2019-01-11T00:47:40.075Z,306.63
2019-01-11T00:50:09.322Z,306.93
2019-01-11T00:52:37.897Z,301.80
2019-01-11T00:55:09.914Z,321.50
2019-01-11T00:57:38.205Z,314.70
2019-01-11T01:00:15.393Z,323.60
2019-01-11T01:02:43.760Z,325.27
2019-01-11T01:05:12.187Z,321.17
2019-01-11T01:07:40.734Z,314.73
2019-01-11T01:10:09.264Z,311.50
2019-01-11T01:12:37.650Z,301.47
2019-01-11T01:15:09.744Z,301.27
2019-01-11T01:17:38.054Z,296.50
2019-01-11T01:20:09.451Z,286.70
2019-01-11T01:22:38.082Z,288.63
2019-01-11T01:25:06.711Z,290.40
2019-01-11T01:27:35.188Z,254.47
2019-01-11T01:30:05.540Z,284.63
2019-01-11T01:32:33.860Z,310.27
2019-01-11T01:35:02.406Z,337.77
2019-01-11T01:37:30.697Z,323.70
2019-01-11T01:39:59.012Z,329.23
2019-01-11T01:42:27.300Z,308.93
2019-01-11T01:44:55.607Z,316.23
2019-01-11T01:47:24.155Z,302.67
2019-01-11T01:49:52.716Z,306.23
2019-01-11T01:52:21.029Z,312.20
2019-01-11T01:54:49.344Z,302.50
2019-01-11T01:57:17.714Z,307.13
2019-01-11T01:59:46.026Z,290.07
2019-01-11T02:02:14.317Z,293.57
2019-01-11T02:04:42.624Z,289.20
2019-01-11T02:07:11.157Z,300.03
2019-01-11T02:09:39.453Z,284.60
2019-01-11T02:12:07.998Z,291.27
2019-01-11T02:14:36.296Z,287.93
2019-01-11T02:17:04.973Z,290.23
2019-01-11T02:19:33.279Z,290.80
2019-01-11T02:22:01.572Z,291.03
2019-01-11T02:24:29.861Z,282.70
2019-01-11T02:26:58.174Z,284.27
2019-01-11T02:29:26.456Z,295.67
2019-01-11T02:31:54.771Z,280.70
2019-01-11T02:34:23.314Z,293.30
2019-01-11T02:36:51.900Z,272.63
2019-01-11T02:39:20.202Z,271.60
2019-01-11T02:41:48.487Z,278.77
2019-01-11T02:44:16.793Z,299.77
2019-01-11T02:46:45.093Z,237.20
2019-01-11T02:49:13.646Z,259.13
2019-01-11T02:51:42.198Z,262.33
2019-01-11T02:54:10.676Z,259.23
2019-01-11T02:56:38.964Z,261.33
2019-01-11T02:59:07.348Z,237.20
2019-01-11T03:01:35.874Z,250.57
2019-01-11T03:04:04.254Z,243.97
2019-01-11T03:06:32.550Z,223.97
2019-01-11T03:09:00.950Z,217.97
2019-01-11T03:11:29.492Z,218.93
2019-01-11T03:13:58.025Z,222.80
2019-01-11T03:16:26.343Z,235.57
2019-01-11T03:18:54.868Z,225.10
2019-01-11T03:21:23.196Z,227.67
2019-01-11T03:23:51.484Z,228.77
2019-01-11T03:26:19.798Z,239.70
2019-01-11T03:28:48.099Z,218.90
2019-01-11T03:31:18.086Z,231.50
2019-01-11T03:33:46.456Z,222.90
2019-01-11T03:36:14.781Z,223.73
2019-01-11T03:38:43.304Z,234.57
2019-01-11T03:41:11.612Z,228.00
2019-01-11T03:43:39.972Z,237.40
2019-01-11T03:46:08.278Z,233.77
2019-01-11T03:48:36.563Z,233.27
2019-01-11T03:51:04.998Z,215.10
2019-01-11T03:53:33.547Z,220.03
2019-01-11T03:56:01.892Z,239.77
2019-01-11T03:58:30.189Z,246.93
2019-01-11T04:00:58.477Z,261.33
2019-01-11T04:03:26.784Z,238.97
2019-01-11T04:05:55.331Z,224.50
2019-01-11T04:08:23.712Z,237.70
2019-01-11T04:10:52.121Z,240.27
2019-01-11T04:13:20.413Z,251.93
2019-01-11T04:15:48.681Z,253.43
2019-01-11T04:18:24.595Z,257.43
2019-01-11T04:20:52.965Z,251.80
2019-01-11T04:23:21.263Z,225.83
2019-01-11T04:25:49.556Z,273.80
2019-01-11T04:28:17.934Z,258.80
2019-01-11T04:30:46.225Z,246.43
2019-01-11T04:33:14.522Z,269.90
2019-01-11T04:35:43.066Z,260.60
2019-01-11T04:38:11.364Z,257.83
2019-01-11T04:40:39.747Z,259.40
2019-01-11T04:43:08.115Z,233.97
2019-01-11T04:45:36.427Z,251.33
2019-01-11T04:48:05.304Z,238.03
2019-01-11T04:50:33.932Z,244.17
2019-01-11T04:53:02.483Z,267.20
2019-01-11T04:55:31.041Z,247.20
2019-01-11T04:57:59.334Z,244.20
2019-01-11T05:00:27.655Z,247.83
2019-01-11T05:02:55.944Z,246.70
2019-01-11T05:05:24.530Z,254.57
2019-01-11T05:07:52.822Z,262.33
2019-01-11T05:10:21.506Z,248.33
2019-01-11T05:12:49.822Z,244.93
2019-01-11T05:15:18.375Z,252.07
2019-01-11T05:17:46.688Z,265.20
2019-01-11T05:20:17.136Z,248.63
2019-01-11T05:22:45.653Z,261.53
2019-01-11T05:25:14.085Z,261.93
2019-01-11T05:27:42.402Z,260.80
2019-01-11T05:30:13.949Z,270.27
2019-01-11T05:32:42.264Z,278.57
2019-01-11T05:35:10.726Z,281.90
2019-01-11T05:37:39.032Z,261.10
2019-01-11T05:40:10.508Z,284.43
2019-01-11T05:42:38.811Z,269.90
2019-01-11T05:45:07.482Z,279.27
2019-01-11T05:47:35.863Z,271.87
2019-01-11T05:50:07.668Z,299.30
2019-01-11T05:52:36.035Z,277.40
2019-01-11T05:55:06.093Z,281.60
2019-01-11T05:57:34.461Z,294.50
2019-01-11T06:00:02.778Z,280.77
2019-01-11T06:02:31.072Z,297.83
2019-01-11T06:05:00.246Z,288.17
2019-01-11T06:07:28.597Z,275.47
2019-01-11T06:09:56.902Z,279.83
2019-01-11T06:12:25.194Z,295.07
2019-01-11T06:14:53.504Z,295.10
2019-01-11T06:17:21.877Z,310.20
2019-01-11T06:19:50.184Z,284.33
2019-01-11T06:22:18.653Z,282.10
2019-01-11T06:24:47.049Z,280.77
2019-01-11T06:27:15.348Z,283.13
2019-01-11T06:29:43.846Z,311.30
2019-01-11T06:32:12.154Z,290.50
2019-01-11T06:34:40.764Z,295.67
2019-01-11T06:37:09.400Z,257.30
2019-01-11T06:39:37.692Z,292.23
2019-01-11T06:42:07.717Z,292.97
2019-01-11T06:44:39.073Z,301.83
2019-01-11T06:47:06.056Z,312.97
2019-01-11T06:49:34.358Z,303.63
2019-01-11T06:52:02.923Z,294.03
2019-01-11T06:54:31.468Z,280.97
2019-01-11T06:56:59.781Z,277.10
2019-01-11T06:59:28.336Z,286.40
2019-01-11T07:01:56.649Z,297.00
2019-01-11T07:04:24.949Z,290.97
2019-01-11T07:06:53.509Z,296.87
2019-01-11T07:09:21.805Z,312.53
2019-01-11T07:11:50.345Z,298.13
2019-01-11T07:14:18.652Z,286.60
2019-01-11T07:16:47.314Z,297.97
2019-01-11T07:19:15.626Z,304.67
2019-01-11T07:21:44.164Z,298.47
2019-01-11T07:24:12.486Z,298.47
2019-01-11T07:26:41.031Z,298.80
2019-01-11T07:29:09.588Z,295.17
2019-01-11T07:31:38.044Z,300.37
2019-01-11T07:34:06.595Z,290.93
2019-01-11T07:36:35.518Z,371.73
2019-01-11T07:39:07.885Z,332.87
2019-01-11T07:41:36.249Z,267.87
2019-01-11T07:44:04.704Z,250.13
2019-01-11T07:46:33.008Z,388.87
2019-01-11T07:49:02.564Z,348.70
2019-01-11T07:51:30.778Z,346.03
2019-01-11T07:53:59.150Z,340.63
2019-01-11T07:56:27.450Z,369.07
2019-01-11T07:58:56.001Z,310.87
2019-01-11T08:01:24.324Z,320.33
2019-01-11T08:03:52.619Z,334.67
2019-01-11T08:06:20.914Z,375.50
2019-01-11T08:08:49.224Z,336.47
2019-01-11T08:11:17.513Z,337.70
2019-01-11T08:13:45.818Z,319.30
2019-01-11T08:16:14.106Z,330.17
2019-01-11T08:18:42.657Z,330.63
2019-01-11T08:21:10.951Z,322.90
2019-01-11T08:23:39.506Z,322.23
2019-01-11T08:26:07.864Z,319.43
2019-01-11T08:28:36.174Z,326.13
2019-01-11T08:31:04.471Z,315.63
2019-01-11T08:33:32.786Z,318.13
2019-01-11T08:36:01.258Z,332.53
2019-01-11T08:38:29.819Z,330.73
2019-01-11T08:40:58.366Z,330.03
2019-01-11T08:43:26.673Z,323.67
2019-01-11T08:45:55.225Z,339.10
2019-01-11T08:48:24.308Z,315.53
2019-01-11T08:50:52.799Z,324.57
2019-01-11T08:53:21.178Z,300.40
2019-01-11T08:55:49.490Z,310.20
2019-01-11T08:58:17.817Z,310.50
2019-01-11T09:00:46.603Z,315.63
2019-01-11T09:03:15.184Z,314.87
2019-01-11T09:05:43.478Z,318.40
2019-01-11T09:08:19.485Z,323.47
2019-01-11T09:10:47.829Z,312.83
2019-01-11T09:13:16.463Z,324.73
2019-01-11T09:15:44.764Z,318.50
2019-01-11T09:18:13.333Z,313.83
2019-01-11T09:20:42.307Z,317.70
2019-01-11T09:23:10.700Z,307.23
2019-01-11T09:25:39.089Z,317.80
2019-01-11T09:28:07.610Z,323.03
2019-01-11T09:30:35.974Z,325.43
2019-01-11T09:33:04.607Z,322.43
2019-01-11T09:35:33.017Z,324.03
2019-01-11T09:38:01.666Z,328.27
2019-01-11T09:40:30.134Z,327.83
2019-01-11T09:42:58.419Z,327.40
2019-01-11T09:45:26.826Z,328.17
2019-01-11T09:47:55.119Z,314.63
2019-01-11T09:50:23.454Z,320.17
2019-01-11T09:52:51.752Z,301.20
2019-01-11T09:55:20.212Z,323.10
2019-01-11T09:57:48.762Z,325.17
2019-01-11T10:00:23.013Z,312.93
2019-01-11T10:02:55.599Z,300.40
2019-01-11T10:05:23.938Z,309.67
2019-01-11T10:07:52.490Z,314.33
2019-01-11T10:10:21.152Z,319.67
2019-01-11T10:12:49.460Z,315.10
2019-01-11T10:15:17.850Z,318.13
2019-01-11T10:17:47.329Z,334.40
2019-01-11T10:20:15.721Z,328.97
2019-01-11T10:22:44.111Z,325.73
2019-01-11T10:25:12.765Z,337.03
2019-01-11T10:27:41.513Z,326.33
2019-01-11T10:30:15.351Z,328.80
2019-01-11T10:32:43.817Z,330.60
2019-01-11T10:35:12.174Z,310.53
2019-01-11T10:37:40.669Z,320.57
2019-01-11T10:40:12.248Z,323.70
2019-01-11T10:42:40.694Z,310.20
2019-01-11T10:45:12.244Z,313.40
2019-01-11T10:47:40.564Z,320.60
2019-01-11T10:50:14.381Z,313.50
2019-01-11T10:52:42.700Z,315.97
2019-01-11T10:55:13.463Z,303.70
2019-01-11T10:57:42.387Z,301.67
2019-01-11T11:00:19.290Z,309.13
2019-01-11T11:02:47.616Z,317.70
2019-01-11T11:05:15.986Z,310.93
2019-01-11T11:07:44.676Z,305.47
2019-01-11T11:10:14.129Z,295.60
2019-01-11T11:12:42.448Z,287.17
2019-01-11T11:15:13.159Z,292.50
2019-01-11T11:17:42.212Z,288.67
2019-01-11T11:20:13.175Z,290.47
2019-01-11T11:22:41.814Z,283.53
2019-01-11T11:25:15.598Z,290.57
2019-01-11T11:27:45.718Z,289.67
2019-01-11T11:30:16.025Z,285.60
2019-01-11T11:32:56.679Z,300.97
2019-01-11T11:35:25.219Z,301.47
2019-01-11T11:37:53.977Z,301.57
2019-01-11T11:40:22.934Z,286.77
2019-01-11T11:42:51.254Z,300.23
2019-01-11T11:45:19.634Z,309.40
2019-01-11T11:47:47.939Z,310.20
2019-01-11T11:50:16.246Z,310.27
2019-01-11T11:52:47.720Z,315.07
2019-01-11T11:55:16.031Z,331.93
2019-01-11T11:57:44.355Z,324.77
2019-01-11T12:00:23.373Z,331.57
2019-01-11T12:02:51.765Z,341.80
2019-01-11T12:05:20.067Z,310.10
2019-01-11T12:07:48.432Z,318.87
2019-01-11T12:10:16.888Z,307.30
2019-01-11T12:12:45.254Z,308.80
2019-01-11T12:15:14.975Z,331.27
2019-01-11T12:17:43.272Z,320.07
2019-01-11T12:20:17.744Z,315.27
2019-01-11T12:22:46.100Z,305.73
2019-01-11T12:25:14.418Z,318.37
2019-01-11T12:27:42.748Z,314.87
2019-01-11T12:30:13.833Z,313.73
2019-01-11T12:32:42.144Z,318.57
2019-01-11T12:35:10.533Z,300.10
2019-01-11T12:37:38.930Z,309.77
2019-01-11T12:40:10.203Z,317.20
2019-01-11T12:42:38.499Z,322.20
2019-01-11T12:45:09.552Z,328.00
2019-01-11T12:47:38.131Z,325.53
2019-01-11T12:50:12.635Z,313.43
2019-01-11T12:52:40.954Z,300.50
2019-01-11T12:55:09.793Z,319.83
2019-01-11T12:57:38.170Z,321.20
2019-01-11T13:00:14.773Z,318.93
2019-01-11T13:02:43.072Z,335.60
2019-01-11T13:05:13.874Z,323.60
2019-01-11T13:07:42.247Z,326.90
2019-01-11T13:10:13.296Z,315.10
2019-01-11T13:12:41.863Z,326.27
2019-01-11T13:15:12.862Z,329.43
2019-01-11T13:17:41.166Z,349.07
2019-01-11T13:20:12.193Z,332.67
2019-01-11T13:22:40.644Z,345.63
2019-01-11T13:25:09.602Z,367.10
2019-01-11T13:27:37.923Z,352.60
2019-01-11T13:30:09.344Z,352.07
2019-01-11T13:32:37.707Z,357.27
2019-01-11T13:35:06.847Z,355.90
2019-01-11T13:37:35.167Z,368.43
2019-01-11T13:40:05.648Z,360.90
2019-01-11T13:42:33.989Z,361.03
2019-01-11T13:45:02.368Z,359.03
2019-01-11T13:47:33.167Z,367.33
2019-01-11T13:50:00.760Z,356.80
2019-01-11T13:52:29.374Z,375.53
2019-01-11T13:54:57.680Z,349.33
2019-01-11T13:57:25.990Z,355.37
2019-01-11T13:59:54.298Z,355.13
2019-01-11T14:02:22.625Z,349.23
2019-01-11T14:04:51.162Z,365.90
2019-01-11T14:07:19.464Z,375.03
2019-01-11T14:09:47.819Z,349.13
2019-01-11T14:12:16.137Z,331.93
2019-01-11T14:14:44.682Z,320.43
2019-01-11T14:17:12.992Z,309.73
2019-01-11T14:19:41.288Z,302.13
2019-01-11T14:22:13.630Z,344.80
2019-01-11T14:24:39.677Z,356.83
2019-01-11T14:27:09.044Z,373.60
2019-01-11T14:29:37.585Z,355.30
2019-01-11T14:32:06.150Z,355.30
2019-01-11T14:34:34.444Z,348.60
2019-01-11T14:37:03.002Z,341.93
2019-01-11T14:39:31.292Z,357.03
2019-01-11T14:42:00.018Z,362.70
2019-01-11T14:44:28.331Z,346.93
2019-01-11T14:46:56.634Z,354.57
2019-01-11T14:49:26.558Z,366.50
2019-01-11T14:51:54.846Z,373.63
2019-01-11T14:54:23.156Z,377.87
2019-01-11T14:56:51.442Z,375.57
2019-01-11T14:59:19.749Z,387.27
2019-01-11T15:01:48.045Z,337.10
2019-01-11T15:04:16.411Z,355.93
2019-01-11T15:06:44.703Z,359.93
2019-01-11T15:09:13.011Z,375.87
2019-01-11T15:11:41.300Z,353.63
2019-01-11T15:14:09.611Z,360.23
2019-01-11T15:16:37.905Z,334.70
2019-01-11T15:19:06.287Z,350.33
2019-01-11T15:21:34.572Z,339.37
2019-01-11T15:24:02.942Z,343.80
2019-01-11T15:26:31.253Z,346.60
2019-01-11T15:28:59.821Z,361.20
2019-01-11T15:31:28.136Z,380.47
2019-01-11T15:33:56.537Z,372.30
2019-01-11T15:36:24.825Z,350.17
2019-01-11T15:38:53.136Z,357.27
2019-01-11T15:41:21.438Z,369.20
2019-01-11T15:43:49.795Z,375.13
2019-01-11T15:46:18.305Z,359.57
2019-01-11T15:48:47.858Z,375.07
2019-01-11T15:51:17.990Z,375.43
2019-01-11T15:53:46.299Z,430.97
2019-01-11T15:56:16.305Z,403.90
2019-01-11T15:58:44.617Z,406.23
2019-01-11T16:01:12.988Z,372.63
2019-01-11T16:03:41.298Z,391.73
2019-01-11T16:06:21.124Z,397.00
2019-01-11T16:08:55.538Z,398.67
2019-01-11T16:11:32.817Z,407.33
2019-01-11T16:14:20.822Z,401.10
2019-01-11T16:16:49.659Z,393.37
2019-01-11T16:19:17.938Z,404.37
2019-01-11T16:21:46.256Z,410.77
2019-01-11T16:24:14.534Z,407.30
2019-01-11T16:26:42.875Z,407.97
2019-01-11T16:29:11.162Z,414.80
2019-01-11T16:31:39.510Z,425.23
2019-01-11T16:34:09.905Z,349.20
2019-01-11T16:36:38.128Z,342.43
2019-01-11T16:39:07.974Z,343.90
2019-01-11T16:41:36.552Z,350.97
2019-01-11T16:44:05.036Z,336.93
2019-01-11T16:46:33.346Z,345.10
2019-01-11T16:49:01.634Z,326.80
2019-01-11T16:51:30.218Z,329.60
2019-01-11T16:53:58.524Z,325.73
2019-01-11T16:56:26.830Z,325.30
2019-01-11T16:58:55.127Z,319.93
2019-01-11T17:01:23.455Z,327.57
2019-01-11T17:03:52.015Z,325.13
2019-01-11T17:06:20.321Z,308.60
2019-01-11T17:08:48.626Z,297.27
2019-01-11T17:11:17.207Z,290.07
2019-01-11T17:13:45.504Z,301.40
2019-01-11T17:16:13.825Z,307.77
2019-01-11T17:18:42.124Z,297.40
2019-01-11T17:21:10.434Z,304.27
2019-01-11T17:23:38.731Z,283.43
2019-01-11T17:26:07.121Z,279.23
2019-01-11T17:28:35.493Z,255.37
2019-01-11T17:31:03.815Z,262.80
2019-01-11T17:33:32.106Z,249.70
2019-01-11T17:36:00.424Z,248.30
2019-01-11T17:38:28.813Z,243.57
2019-01-11T17:40:57.145Z,239.33
2019-01-11T17:43:25.432Z,256.77
2019-01-11T17:45:53.751Z,262.57
2019-01-11T17:48:22.041Z,274.63
2019-01-11T17:50:50.590Z,282.30
2019-01-11T17:53:18.975Z,283.17
2019-01-11T17:55:47.274Z,277.77
2019-01-11T17:58:15.586Z,269.13
2019-01-11T18:00:43.920Z,255.40
2019-01-11T18:03:12.199Z,252.23
2019-01-11T18:05:40.733Z,262.23
2019-01-11T18:08:09.049Z,229.30
2019-01-11T18:10:37.605Z,246.97
2019-01-11T18:13:05.988Z,242.63
2019-01-11T18:15:34.287Z,253.03
2019-01-11T18:18:02.632Z,293.40
2019-01-11T18:20:30.926Z,284.40
2019-01-11T18:22:59.239Z,281.23
2019-01-11T18:25:27.527Z,285.23
2019-01-11T18:27:55.849Z,294.33
2019-01-11T18:30:24.152Z,274.23
2019-01-11T18:32:52.481Z,294.77
2019-01-11T18:35:20.769Z,290.33
2019-01-11T18:37:49.082Z,287.13
2019-01-11T18:40:26.887Z,289.50
2019-01-11T18:42:55.464Z,295.60
2019-01-11T18:45:28.615Z,299.17
2019-01-11T18:47:53.777Z,294.97
2019-01-11T18:50:23.796Z,324.07
2019-01-11T18:52:52.072Z,285.40
2019-01-11T18:55:20.443Z,308.70
2019-01-11T18:57:48.801Z,309.27
2019-01-11T19:00:20.624Z,317.27
2019-01-11T19:02:49.227Z,317.87
2019-01-11T19:05:17.676Z,322.03
2019-01-11T19:07:46.502Z,301.93
2019-01-11T19:10:19.238Z,321.10
2019-01-11T19:12:47.539Z,303.13
2019-01-11T19:15:18.642Z,311.77
2019-01-11T19:17:47.195Z,310.63
2019-01-11T19:20:23.333Z,304.30
2019-01-11T19:22:51.880Z,281.33
2019-01-11T19:25:20.259Z,306.53
2019-01-11T19:27:49.484Z,328.80
2019-01-11T19:30:20.529Z,306.40
2019-01-11T19:32:48.901Z,304.03
2019-01-11T19:35:17.280Z,307.47
2019-01-11T19:37:45.811Z,312.23
2019-01-11T19:40:16.287Z,306.43
2019-01-11T19:42:44.644Z,298.80
2019-01-11T19:45:14.482Z,307.07
2019-01-11T19:47:42.930Z,302.33
2019-01-11T19:50:14.335Z,292.33
2019-01-11T19:52:43.015Z,289.67
2019-01-11T19:55:11.668Z,292.63
2019-01-11T19:57:40.227Z,322.23
2019-01-11T20:00:14.240Z,287.13
2019-01-11T20:02:42.533Z,283.63
2019-01-11T20:05:11.227Z,281.07
2019-01-11T20:07:39.517Z,279.60
2019-01-11T20:10:19.850Z,292.60
2019-01-11T20:12:48.164Z,265.93
2019-01-11T20:15:16.710Z,265.30
2019-01-11T20:17:45.037Z,276.93
2019-01-11T20:20:14.550Z,272.30
2019-01-11T20:22:42.926Z,291.50
2019-01-11T20:25:19.364Z,297.33
2019-01-11T20:27:47.819Z,316.37
2019-01-11T20:30:21.785Z,273.13
2019-01-11T20:32:50.156Z,296.60
2019-01-11T20:35:19.108Z,264.47
2019-01-11T20:37:47.499Z,279.40
2019-01-11T20:40:16.721Z,267.77
2019-01-11T20:42:45.098Z,265.43
2019-01-11T20:45:15.527Z,267.63
2019-01-11T20:47:43.835Z,280.87
2019-01-11T20:50:17.134Z,270.20
2019-01-11T20:52:45.512Z,263.90
2019-01-11T20:55:14.245Z,285.27
2019-01-11T20:57:42.914Z,277.07
2019-01-11T21:00:20.025Z,301.97
2019-01-11T21:02:48.322Z,292.27
2019-01-11T21:05:17.076Z,280.63
2019-01-11T21:07:45.385Z,264.77
2019-01-11T21:10:14.639Z,262.67
2019-01-11T21:12:43.023Z,276.57
2019-01-11T21:15:16.999Z,277.83
2019-01-11T21:17:45.473Z,282.97
2019-01-11T21:20:15.901Z,297.83
2019-01-11T21:22:45.026Z,252.77
2019-01-11T21:25:15.067Z,262.00
2019-01-11T21:27:43.546Z,258.27
2019-01-11T21:30:14.797Z,265.33
2019-01-11T21:32:43.338Z,257.53
2019-01-11T21:35:11.722Z,285.67
2019-01-11T21:37:40.099Z,306.03
2019-01-11T21:40:11.722Z,267.63
2019-01-11T21:42:40.401Z,273.47
2019-01-11T21:45:12.872Z,278.20
2019-01-11T21:47:41.437Z,307.97
2019-01-11T21:50:12.554Z,277.60
2019-01-11T21:52:41.159Z,273.60
2019-01-11T21:55:11.057Z,267.20
2019-01-11T21:57:39.345Z,277.67
2019-01-11T22:00:13.486Z,269.27
2019-01-11T22:02:41.780Z,274.90
2019-01-11T22:05:10.469Z,285.13
2019-01-11T22:07:39.009Z,294.17
2019-01-11T22:10:13.137Z,289.80
2019-01-11T22:12:41.503Z,297.37
2019-01-11T22:15:12.847Z,312.53
2019-01-11T22:17:41.147Z,300.47
2019-01-11T22:20:12.539Z,310.07
2019-01-11T22:22:40.824Z,316.07
2019-01-11T22:25:10.947Z,303.17
2019-01-11T22:27:39.297Z,289.60
2019-01-11T22:30:12.916Z,298.93
2019-01-11T22:32:41.393Z,295.70
2019-01-11T22:35:09.835Z,305.03
2019-01-11T22:37:38.142Z,309.93
2019-01-11T22:40:17.682Z,291.30
2019-01-11T22:42:46.617Z,292.70
2019-01-11T22:45:15.961Z,306.93
2019-01-11T22:47:44.332Z,300.10
2019-01-11T22:50:14.575Z,283.00
2019-01-11T22:52:42.990Z,297.00
2019-01-11T22:55:14.134Z,294.17
2019-01-11T22:57:42.497Z,295.03
2019-01-11T23:00:36.490Z,287.97
2019-01-11T23:03:10.691Z,314.77
2019-01-11T23:05:39.638Z,280.83
2019-01-11T23:08:09.377Z,281.10
2019-01-11T23:10:43.517Z,276.23
2019-01-11T23:13:11.810Z,275.37
2019-01-11T23:15:40.120Z,281.43
2019-01-11T23:18:08.552Z,271.73
2019-01-11T23:20:36.863Z,271.17
2019-01-11T23:23:05.415Z,269.77
2019-01-11T23:25:33.729Z,276.17
2019-01-11T23:28:02.017Z,268.73
2019-01-11T23:30:30.321Z,269.87
2019-01-11T23:32:58.615Z,282.40
2019-01-11T23:35:26.925Z,278.20
2019-01-11T23:37:55.224Z,275.80
2019-01-11T23:40:23.834Z,281.73
2019-01-11T23:42:52.142Z,274.33
2019-01-11T23:45:20.432Z,272.83
2019-01-11T23:47:48.756Z,273.23
2019-01-11T23:50:17.375Z,281.33
2019-01-11T23:52:45.826Z,268.57
2019-01-11T23:55:14.109Z,291.07
2019-01-11T23:57:42.427Z,279.70
